createdAt,value
2018-07-25T00:01:01.757Z,100862.95
2018-07-25T00:03:38.412Z,100856.97
2018-07-25T00:06:08.816Z,100859.77
2018-07-25T00:08:40.448Z,100859.98
2018-07-25T00:11:12.162Z,100862.90
2018-07-25T00:13:42.866Z,100858.85
2018-07-25T00:16:16.025Z,100858.64
2018-07-25T00:18:47.139Z,100856.20
2018-07-25T00:21:23.188Z,100857.03
2018-07-25T00:23:56.673Z,100851.11
2018-07-25T00:26:27.866Z,100853.20
2018-07-25T00:28:59.685Z,100852.28
2018-07-25T00:31:32.137Z,100848.70
2018-07-25T00:34:03.428Z,100856.11
2018-07-25T00:36:35.169Z,100856.41
2018-07-25T00:39:07.115Z,100849.09
2018-07-25T00:41:38.140Z,100854.33
2018-07-25T00:44:10.426Z,100858.28
2018-07-25T00:46:41.220Z,100852.62
2018-07-25T00:49:13.419Z,100852.39
2018-07-25T00:51:48.573Z,100859.64
2018-07-25T00:54:19.315Z,100856.94
2018-07-25T00:59:50.629Z,100852.07
2018-07-25T01:02:21.231Z,100860.80
2018-07-25T01:04:53.353Z,100858.23
2018-07-25T01:07:26.583Z,100852.49
2018-07-25T01:09:57.469Z,100851.45
2018-07-25T01:12:29.082Z,100848.41
2018-07-25T01:14:59.960Z,100848.41
2018-07-25T01:17:30.909Z,100846.66
2018-07-25T01:20:05.321Z,100853.36
2018-07-25T01:22:43.996Z,100855.69
2018-07-25T01:25:14.960Z,100860.39
2018-07-25T01:27:45.345Z,100855.27
2018-07-25T01:30:17.716Z,100852.84
2018-07-25T01:32:48.307Z,100860.67
2018-07-25T01:35:18.954Z,100859.73
2018-07-25T01:37:49.747Z,100865.66
2018-07-25T01:40:20.181Z,100866.84
2018-07-25T01:42:50.583Z,100870.47
2018-07-25T01:45:21.306Z,100867.67
2018-07-25T01:47:53.282Z,100859.70
2018-07-25T01:50:24.624Z,100858.98
2018-07-25T01:52:55.221Z,100860.89
2018-07-25T01:55:25.685Z,100862.08
2018-07-25T01:57:56.108Z,100857.50
2018-07-25T02:00:33.847Z,100861.91
2018-07-25T02:03:04.922Z,100862.39
2018-07-25T02:05:35.207Z,100869.23
2018-07-25T02:08:05.732Z,100864.45
2018-07-25T02:10:39.023Z,100868.73
2018-07-25T02:13:09.402Z,100863.84
2018-07-25T02:15:39.960Z,100865.41
2018-07-25T02:18:10.895Z,100868.78
2018-07-25T02:20:41.514Z,100875.73
2018-07-25T02:23:13.194Z,100874.85
2018-07-25T02:25:43.585Z,100874.73
2018-07-25T02:28:13.940Z,100873.89
2018-07-25T02:30:46.509Z,100877.03
2018-07-25T02:33:17.347Z,100875.20
2018-07-25T02:35:47.786Z,100871.42
2018-07-25T02:38:19.821Z,100876.45
2018-07-25T02:40:50.989Z,100880.47
2018-07-25T02:43:22.559Z,100883.17
2018-07-25T02:45:54.083Z,100891.88
2018-07-25T02:48:24.896Z,100888.61
2018-07-25T02:50:55.854Z,100890.08
2018-07-25T02:53:26.248Z,100895.43
2018-07-25T02:55:56.913Z,100894.78
2018-07-25T02:58:27.909Z,100904.16
2018-07-25T03:00:59.095Z,100894.00
2018-07-25T03:03:32.878Z,100903.68
2018-07-25T03:06:05.640Z,100903.16
2018-07-25T03:08:36.151Z,100904.92
2018-07-25T03:11:07.011Z,100904.55
2018-07-25T03:13:37.448Z,100906.48
2018-07-25T03:16:09.054Z,100914.89
2018-07-25T03:18:39.726Z,100913.62
2018-07-25T03:21:10.181Z,100914.67
2018-07-25T03:23:42.051Z,100913.66
2018-07-25T03:26:22.643Z,100916.88
2018-07-25T03:28:53.495Z,100919.73
2018-07-25T03:31:24.484Z,100920.56
2018-07-25T03:33:55.683Z,100920.48
2018-07-25T03:36:27.868Z,100925.02
2018-07-25T03:39:02.516Z,100927.75
2018-07-25T03:41:34.074Z,100929.29
2018-07-25T03:44:06.082Z,100927.67
2018-07-25T03:46:36.813Z,100928.89
2018-07-25T03:49:07.504Z,100927.48
2018-07-25T03:51:41.195Z,100931.67
2018-07-25T03:54:11.637Z,100928.05
2018-07-25T03:56:42.064Z,100927.92
2018-07-25T03:59:13.717Z,100922.70
2018-07-25T04:01:46.334Z,100926.61
2018-07-25T04:04:16.841Z,100926.99
2018-07-25T04:06:51.499Z,100924.52
2018-07-25T04:09:27.633Z,100926.78
2018-07-25T04:12:03.395Z,100922.99
2018-07-25T04:14:33.928Z,100922.61
2018-07-25T04:17:10.677Z,100921.41
2018-07-25T04:19:41.038Z,100925.78
2018-07-25T04:22:11.457Z,100916.33
2018-07-25T04:24:42.211Z,100919.11
2018-07-25T04:27:13.775Z,100926.42
2018-07-25T04:29:45.147Z,100926.03
2018-07-25T04:32:19.354Z,100926.91
2018-07-25T04:34:53.722Z,100930.30
2018-07-25T04:37:24.550Z,100934.48
2018-07-25T04:39:55.397Z,100931.42
2018-07-25T04:42:29.015Z,100935.17
2018-07-25T04:45:00.614Z,100948.50
2018-07-25T04:47:33.611Z,100948.48
2018-07-25T04:50:04.135Z,100951.55
2018-07-25T04:52:40.078Z,100952.92
2018-07-25T04:55:13.586Z,100960.70
2018-07-25T04:57:55.244Z,100959.71
2018-07-25T05:00:27.106Z,100960.11
2018-07-25T05:02:57.995Z,100961.82
2018-07-25T05:05:29.255Z,100954.18
2018-07-25T05:08:00.975Z,100958.62
2018-07-25T05:10:32.509Z,100962.31
2018-07-25T05:13:05.460Z,100964.69
2018-07-25T05:15:38.350Z,100961.49
2018-07-25T05:18:11.173Z,100969.86
2018-07-25T05:20:45.031Z,100968.58
2018-07-25T05:23:15.498Z,100977.16
2018-07-25T05:25:50.163Z,100982.06
2018-07-25T05:28:21.397Z,100985.84
2018-07-25T05:30:55.282Z,100990.59
2018-07-25T05:33:27.023Z,100988.47
2018-07-25T05:35:58.037Z,100991.73
2018-07-25T05:38:29.671Z,100991.20
2018-07-25T05:41:03.980Z,100993.77
2018-07-25T05:43:34.819Z,101000.77
2018-07-25T05:46:07.035Z,100998.20
2018-07-25T05:48:47.847Z,100994.55
2018-07-25T05:51:18.350Z,100995.48
2018-07-25T05:53:50.030Z,101000.47
2018-07-25T05:56:22.926Z,101010.16
2018-07-25T05:58:55.229Z,101012.08
2018-07-25T06:01:31.459Z,101013.41
2018-07-25T06:04:18.422Z,101019.53
2018-07-25T06:07:00.589Z,101023.11
2018-07-25T06:09:32.553Z,101029.63
2018-07-25T06:12:05.201Z,101030.68
2018-07-25T06:14:36.447Z,101028.22
2018-07-25T06:17:08.986Z,101027.74
2018-07-25T06:19:39.751Z,101022.86
2018-07-25T06:22:10.172Z,101030.53
2018-07-25T06:24:42.264Z,101034.38
2018-07-25T06:27:13.133Z,101038.27
2018-07-25T06:29:47.484Z,101030.27
2018-07-25T06:32:18.664Z,101038.80
2018-07-25T06:34:50.439Z,101039.23
2018-07-25T06:37:22.051Z,101039.56
2018-07-25T06:39:54.149Z,101041.55
2018-07-25T06:42:26.051Z,101039.98
2018-07-25T06:45:07.418Z,101050.76
2018-07-25T06:47:42.618Z,101045.79
2018-07-25T06:50:34.694Z,101047.47
2018-07-25T06:53:14.619Z,101050.17
2018-07-25T06:55:45.674Z,101048.53
2018-07-25T06:58:17.302Z,101052.94
2018-07-25T07:00:49.480Z,101056.25
2018-07-25T07:03:21.113Z,101057.94
2018-07-25T07:06:00.955Z,101060.63
2018-07-25T07:08:33.332Z,101066.02
2018-07-25T07:11:04.929Z,101062.32
2018-07-25T07:13:36.278Z,101061.39
2018-07-25T07:16:11.689Z,101064.40
2018-07-25T07:18:44.832Z,101068.45
2018-07-25T07:21:16.497Z,101067.65
2018-07-25T07:23:52.444Z,101069.48
2018-07-25T07:26:24.713Z,101071.59
2018-07-25T07:28:56.351Z,101069.13
2018-07-25T07:31:30.385Z,101018.88
2018-07-25T07:34:02.551Z,101066.36
2018-07-25T07:36:34.085Z,101074.37
2018-07-25T07:39:08.049Z,101078.08
2018-07-25T07:41:39.724Z,101075.31
2018-07-25T07:44:12.083Z,101076.92
2018-07-25T07:46:43.453Z,101071.20
2018-07-25T07:49:17.165Z,101046.57
2018-07-25T07:51:47.864Z,101077.33
2018-07-25T07:54:19.767Z,101085.84
2018-07-25T07:56:55.519Z,101085.97
2018-07-25T07:59:30.534Z,101089.75
2018-07-25T08:02:11.394Z,101083.73
2018-07-25T08:04:47.987Z,101086.25
2018-07-25T08:07:20.300Z,101084.39
2018-07-25T08:09:58.489Z,101080.25
2018-07-25T08:12:30.630Z,101079.58
2018-07-25T08:15:34.978Z,101082.53
2018-07-25T08:18:08.894Z,101077.52
2018-07-25T08:20:43.606Z,101076.69
2018-07-25T08:23:14.439Z,101074.44
2018-07-25T08:25:45.232Z,101073.83
2018-07-25T08:28:16.856Z,101069.87
2018-07-25T08:30:51.269Z,101073.14
2018-07-25T08:33:22.323Z,101075.62
2018-07-25T08:35:53.253Z,101074.14
2018-07-25T08:38:45.759Z,101070.73
2018-07-25T08:41:20.029Z,101067.35
2018-07-25T08:43:52.040Z,101064.20
2018-07-25T08:46:28.145Z,101063.97
2018-07-25T08:49:04.469Z,101067.23
2018-07-25T08:51:45.304Z,101065.95
2018-07-25T08:54:24.989Z,101068.33
2018-07-25T08:56:56.725Z,101062.27
2018-07-25T08:59:27.845Z,101069.45
2018-07-25T09:02:01.357Z,101070.97
2018-07-25T09:04:32.098Z,101062.58
2018-07-25T09:07:04.765Z,101068.84
2018-07-25T09:09:36.155Z,101066.94
2018-07-25T09:12:11.679Z,101067.66
2018-07-25T09:14:42.717Z,101067.98
2018-07-25T09:17:14.950Z,101064.88
2018-07-25T09:19:52.367Z,101065.77
2018-07-25T09:22:23.502Z,101063.34
2018-07-25T09:24:55.312Z,101068.84
2018-07-25T09:27:33.631Z,101067.00
2018-07-25T09:30:17.821Z,101073.66
2018-07-25T09:32:50.984Z,101063.16
2018-07-25T09:35:34.294Z,101069.96
2018-07-25T09:38:27.169Z,101059.08
2018-07-25T09:41:14.453Z,101067.08
2018-07-25T09:43:53.807Z,101065.38
2018-07-25T09:46:28.203Z,101064.48
2018-07-25T09:49:02.209Z,101065.09
2018-07-25T09:51:33.949Z,101060.20
2018-07-25T09:54:07.389Z,101058.80
2018-07-25T09:56:42.596Z,101053.55
2018-07-25T10:01:55.647Z,101055.52
2018-07-25T10:04:36.286Z,101060.48
2018-07-25T10:10:33.601Z,101064.86
2018-07-25T10:13:05.683Z,101065.66
2018-07-25T10:15:49.648Z,101060.47
2018-07-25T10:18:24.358Z,101058.70
2018-07-25T10:20:55.924Z,101061.80
2018-07-25T10:23:28.822Z,101061.38
2018-07-25T10:26:02.431Z,101052.79
2018-07-25T10:28:33.151Z,101046.38
2018-07-25T10:31:11.313Z,101053.52
2018-07-25T10:33:42.970Z,101056.84
2018-07-25T10:36:16.112Z,101062.31
2018-07-25T10:38:51.216Z,101055.56
2018-07-25T10:41:24.050Z,101045.90
2018-07-25T10:43:57.797Z,101052.86
2018-07-25T10:46:32.668Z,101048.53
2018-07-25T10:49:07.804Z,101047.20
2018-07-25T10:51:40.273Z,101046.67
2018-07-25T10:54:17.354Z,101044.66
2018-07-25T10:56:48.612Z,101040.30
2018-07-25T10:59:19.530Z,101045.62
2018-07-25T11:01:58.387Z,101045.94
2018-07-25T11:04:31.204Z,101009.98
2018-07-25T11:07:02.229Z,101034.70
2018-07-25T11:09:36.879Z,101031.83
2018-07-25T11:12:12.444Z,101031.61
2018-07-25T11:14:47.436Z,101032.23
2018-07-25T11:17:28.232Z,101031.52
2018-07-25T11:20:08.071Z,101035.20
2018-07-25T11:22:40.857Z,101029.53
2018-07-25T11:25:14.117Z,101031.67
2018-07-25T11:27:46.805Z,101027.94
2018-07-25T11:30:37.218Z,101025.66
2018-07-25T11:33:13.666Z,101019.34
2018-07-25T11:38:50.851Z,101016.20
2018-07-25T11:41:28.468Z,101018.91
2018-07-25T11:44:05.307Z,101012.80
2018-07-25T11:46:49.423Z,101015.02
2018-07-25T11:49:24.320Z,101008.25
2018-07-25T11:51:56.641Z,101008.14
2018-07-25T11:54:32.914Z,101012.55
2018-07-25T11:57:03.651Z,101005.42
2018-07-25T11:59:35.903Z,101009.45
2018-07-25T12:02:07.427Z,101001.09
2018-07-25T12:04:47.413Z,101006.10
2018-07-25T12:07:18.856Z,100996.57
2018-07-25T12:09:49.676Z,100993.70
2018-07-25T12:12:22.756Z,100995.38
2018-07-25T12:14:54.299Z,100991.39
2018-07-25T12:17:27.069Z,100984.38
2018-07-25T12:19:57.647Z,100988.56
2018-07-25T12:22:31.819Z,100984.78
2018-07-25T12:25:06.308Z,100949.14
2018-07-25T12:27:38.554Z,100975.32
2018-07-25T12:30:10.323Z,100976.03
2018-07-25T12:32:48.027Z,100980.75
2018-07-25T12:35:19.830Z,100975.31
2018-07-25T12:37:52.642Z,100971.48
2018-07-25T12:40:23.983Z,100970.92
2018-07-25T12:42:55.086Z,100973.75
2018-07-25T12:45:26.753Z,100961.84
2018-07-25T12:47:57.637Z,100959.95
2018-07-25T12:50:30.563Z,100962.04
2018-07-25T12:53:02.253Z,100962.02
2018-07-25T12:55:35.456Z,100955.13
2018-07-25T12:58:15.013Z,100954.24
2018-07-25T13:00:47.922Z,100957.03
2018-07-25T13:03:20.201Z,100959.03
2018-07-25T13:05:54.087Z,100955.39
2018-07-25T13:08:26.490Z,100954.45
2018-07-25T13:11:02.041Z,100953.66
2018-07-25T13:13:33.187Z,100958.11
2018-07-25T13:16:04.288Z,100956.30
2018-07-25T13:18:35.507Z,100948.42
2018-07-25T13:21:07.442Z,100950.37
2018-07-25T13:23:51.565Z,100950.70
2018-07-25T13:26:25.021Z,100951.86
2018-07-25T13:28:57.911Z,100950.72
2018-07-25T13:31:31.355Z,100947.77
2018-07-25T13:34:01.924Z,100939.47
2018-07-25T13:36:36.382Z,100945.34
2018-07-25T13:39:08.970Z,100934.00
2018-07-25T13:41:41.007Z,100933.86
2018-07-25T13:44:13.495Z,100935.41
2018-07-25T13:46:44.567Z,100932.45
2018-07-25T13:49:16.372Z,100935.47
2018-07-25T13:51:47.632Z,100930.98
2018-07-25T13:54:19.973Z,100934.59
2018-07-25T13:56:51.123Z,100935.88
2018-07-25T13:59:22.858Z,100936.67
2018-07-25T14:01:54.382Z,100933.99
2018-07-25T14:04:25.976Z,100934.58
2018-07-25T14:06:56.598Z,100941.17
2018-07-25T14:09:28.147Z,100939.38
2018-07-25T14:11:59.634Z,100922.34
2018-07-25T14:14:30.993Z,100923.46
2018-07-25T14:17:02.808Z,100925.80
2018-07-25T14:19:33.957Z,100926.48
2018-07-25T14:22:06.753Z,100931.09
2018-07-25T14:24:38.173Z,100928.42
2018-07-25T14:27:09.503Z,100929.50
2018-07-25T14:29:49.820Z,100931.28
2018-07-25T14:32:24.376Z,100937.17
2018-07-25T14:34:56.197Z,100937.73
2018-07-25T14:37:29.662Z,100938.17
2018-07-25T14:40:01.123Z,100929.45
2018-07-25T14:42:31.884Z,100923.58
2018-07-25T14:45:07.324Z,100919.15
2018-07-25T14:47:40.693Z,100925.80
2018-07-25T14:50:16.194Z,100923.12
2018-07-25T14:52:46.901Z,100925.20
2018-07-25T14:55:21.222Z,100923.55
2018-07-25T14:57:53.244Z,100922.95
2018-07-25T15:00:28.176Z,100925.24
2018-07-25T15:03:03.059Z,100923.03
2018-07-25T15:05:36.153Z,100847.09
2018-07-25T15:08:11.548Z,100919.94
2018-07-25T15:10:59.623Z,100928.70
2018-07-25T15:13:32.090Z,100931.58
2018-07-25T15:16:03.689Z,100924.39
2018-07-25T15:18:35.386Z,100926.30
2018-07-25T15:21:06.015Z,100916.62
2018-07-25T15:23:47.379Z,100922.72
2018-07-25T15:26:18.553Z,100915.80
2018-07-25T15:28:51.240Z,100910.67
2018-07-25T15:31:31.966Z,100913.00
2018-07-25T15:34:04.429Z,100912.15
2018-07-25T15:37:01.986Z,100900.21
2018-07-25T15:39:33.521Z,100905.05
2018-07-25T15:42:11.486Z,100900.03
2018-07-25T15:44:53.958Z,100910.13
2018-07-25T15:47:30.260Z,100794.85
2018-07-25T15:50:13.816Z,100919.20
2018-07-25T15:52:45.919Z,100918.08
2018-07-25T15:55:18.439Z,100921.52
2018-07-25T15:57:52.446Z,100921.64
2018-07-25T16:00:25.474Z,100910.92
2018-07-25T16:02:57.501Z,100913.86
2018-07-25T16:05:33.451Z,100913.11
2018-07-25T16:08:20.991Z,100910.70
2018-07-25T16:10:55.118Z,100913.41
2018-07-25T16:13:25.997Z,100908.88
2018-07-25T16:15:56.600Z,100913.03
2018-07-25T16:18:28.791Z,100912.13
2018-07-25T16:21:08.299Z,100905.47
2018-07-25T16:23:42.199Z,100904.64
2018-07-25T16:26:14.057Z,100903.91
2018-07-25T16:28:52.832Z,100894.81
2018-07-25T16:31:24.560Z,100901.20
2018-07-25T16:33:58.733Z,100896.17
2018-07-25T16:36:30.716Z,100900.38
2018-07-25T16:39:04.125Z,100895.28
2018-07-25T16:41:36.776Z,100893.10
2018-07-25T16:46:45.818Z,100892.03
2018-07-25T16:52:19.973Z,100894.57
2018-07-25T16:54:58.216Z,100898.19
2018-07-25T16:57:33.183Z,100900.25
2018-07-25T17:00:22.139Z,100899.08
2018-07-25T17:02:59.168Z,100895.95
2018-07-25T17:05:30.761Z,100890.95
2018-07-25T17:08:03.233Z,100891.59
2018-07-25T17:10:33.893Z,100898.32
2018-07-25T17:13:19.999Z,100900.52
2018-07-25T17:15:56.441Z,100900.78
2018-07-25T17:18:29.014Z,100905.89
2018-07-25T17:20:59.998Z,100903.23
2018-07-25T17:23:32.541Z,100907.04
2018-07-25T17:26:03.288Z,100912.02
2018-07-25T17:28:36.005Z,100913.03
2018-07-25T17:31:10.687Z,100908.06
2018-07-25T17:33:44.600Z,100907.69
2018-07-25T17:36:19.072Z,100907.59
2018-07-25T17:38:54.014Z,100911.25
2018-07-25T17:41:25.260Z,100912.61
2018-07-25T17:43:56.617Z,100920.38
2018-07-25T17:46:37.800Z,100916.34
2018-07-25T17:51:48.817Z,100931.09
2018-07-25T17:54:21.478Z,100934.47
2018-07-25T17:56:53.598Z,100938.16
2018-07-25T17:59:26.181Z,100936.80
2018-07-25T18:01:59.178Z,100940.42
2018-07-25T18:04:45.593Z,100928.54
2018-07-25T18:07:44.817Z,100944.24
2018-07-25T18:10:21.405Z,100957.47
2018-07-25T18:12:56.864Z,100959.35
2018-07-25T18:15:34.413Z,100897.87
2018-07-25T18:18:12.127Z,100954.92
2018-07-25T18:20:47.002Z,100956.59
2018-07-25T18:23:23.678Z,100960.73
2018-07-25T18:25:58.945Z,100959.61
2018-07-25T18:28:31.370Z,100963.98
2018-07-25T18:31:12.505Z,100966.76
2018-07-25T18:33:50.836Z,100969.78
2018-07-25T18:36:25.368Z,100970.30
2018-07-25T18:41:45.512Z,100973.58
2018-07-25T18:44:17.239Z,100979.72
2018-07-25T18:46:57.464Z,100974.14
2018-07-25T18:52:21.600Z,100981.23
2018-07-25T18:55:00.101Z,100984.30
2018-07-25T18:57:37.454Z,100983.73
2018-07-25T19:00:35.301Z,100985.95
2018-07-25T19:03:25.207Z,100984.02
2018-07-25T19:06:01.830Z,100978.54
2018-07-25T19:08:43.541Z,100986.25
2018-07-25T19:11:17.306Z,100984.74
2018-07-25T19:14:00.493Z,100984.43
2018-07-25T19:19:34.667Z,100984.93
2018-07-25T19:23:14.645Z,100978.28
2018-07-25T19:25:55.435Z,100982.92
2018-07-25T19:28:31.527Z,100990.63
2018-07-25T19:31:20.135Z,100989.00
2018-07-25T19:33:54.271Z,100998.86
2018-07-25T19:36:30.984Z,101006.50
2018-07-25T19:39:17.451Z,101019.39
2018-07-25T19:41:56.623Z,101013.13
2018-07-25T19:44:34.502Z,101008.98
2018-07-25T19:47:08.088Z,101010.77
2018-07-25T19:49:43.444Z,101020.14
2018-07-25T19:52:16.984Z,101022.06
2018-07-25T19:54:48.768Z,101025.78
2018-07-25T19:57:21.386Z,101019.35
2018-07-25T19:59:55.435Z,101018.94
2018-07-25T20:02:29.035Z,101021.38
2018-07-25T20:05:09.816Z,101027.61
2018-07-25T20:07:49.167Z,101012.32
2018-07-25T20:10:23.687Z,101010.05
2018-07-25T20:12:56.812Z,101017.16
2018-07-25T20:15:39.606Z,101013.19
2018-07-25T20:18:11.984Z,101027.13
2018-07-25T20:20:45.481Z,101019.33
2018-07-25T20:23:16.114Z,101014.02
2018-07-25T20:25:48.973Z,101015.66
2018-07-25T20:28:19.454Z,101015.38
2018-07-25T20:30:57.065Z,101010.60
2018-07-25T20:33:37.268Z,101013.87
2018-07-25T20:36:11.900Z,101018.99
2018-07-25T20:38:55.502Z,101023.05
2018-07-25T20:41:37.493Z,101019.45
2018-07-25T20:44:13.414Z,101021.59
2018-07-25T20:47:20.122Z,101019.04
2018-07-25T20:49:59.405Z,101018.62
2018-07-25T20:52:38.105Z,101024.92
2018-07-25T20:55:14.114Z,101018.01
2018-07-25T20:57:46.837Z,101024.79
2018-07-25T21:00:35.933Z,101015.43
2018-07-25T21:03:08.807Z,101022.20
2018-07-25T21:05:47.329Z,101022.96
2018-07-25T21:08:28.100Z,101019.92
2018-07-25T21:11:02.811Z,101022.27
2018-07-25T21:13:34.822Z,101021.30
2018-07-25T21:16:14.501Z,101019.28
2018-07-25T21:18:47.301Z,101020.59
2018-07-25T21:21:30.365Z,101027.26
2018-07-25T21:24:09.255Z,101023.85
2018-07-25T21:26:40.313Z,101026.30
2018-07-25T21:29:17.096Z,101025.76
2018-07-25T21:31:51.252Z,101031.75
2018-07-25T21:34:24.325Z,101025.30
2018-07-25T21:37:00.338Z,101026.22
2018-07-25T21:39:38.551Z,101025.84
2018-07-25T21:42:14.051Z,101031.53
2018-07-25T21:44:53.967Z,101029.27
2018-07-25T21:47:28.731Z,101039.36
2018-07-25T21:50:02.244Z,101035.66
2018-07-25T21:52:37.581Z,101039.21
2018-07-25T21:55:13.094Z,101033.97
2018-07-25T21:57:51.386Z,101040.37
2018-07-25T22:00:26.626Z,101033.73
2018-07-25T22:03:02.755Z,101028.10
2018-07-25T22:05:34.017Z,101033.42
2018-07-25T22:08:14.107Z,101031.77
2018-07-25T22:10:47.357Z,101033.07
2018-07-25T22:13:22.009Z,101028.75
2018-07-25T22:15:56.066Z,101027.66
2018-07-25T22:18:31.715Z,101027.36
2018-07-25T22:21:03.430Z,101028.10
2018-07-25T22:23:36.003Z,101023.13
2018-07-25T22:26:08.101Z,101024.41
2018-07-25T22:28:40.879Z,101019.22
2018-07-25T22:31:14.531Z,101023.94
2018-07-25T22:33:45.218Z,101027.69
2018-07-25T22:36:18.773Z,101031.23
2018-07-25T22:38:51.774Z,101032.09
2018-07-25T22:41:23.659Z,101040.91
2018-07-25T22:43:57.442Z,101040.19
2018-07-25T22:46:30.391Z,101039.71
2018-07-25T22:49:06.573Z,101038.34
2018-07-25T22:51:39.241Z,101045.19
2018-07-25T22:54:12.547Z,101029.34
2018-07-25T22:56:45.355Z,101035.59
2018-07-25T22:59:16.393Z,101027.45
2018-07-25T23:01:51.626Z,101036.21
2018-07-25T23:04:23.101Z,101035.67
2018-07-25T23:06:53.912Z,101036.80
2018-07-25T23:09:25.367Z,101035.45
2018-07-25T23:11:56.765Z,101034.50
2018-07-25T23:14:27.824Z,101033.92
2018-07-25T23:16:58.962Z,101023.41
2018-07-25T23:19:30.854Z,101024.46
2018-07-25T23:22:01.628Z,101025.35
2018-07-25T23:24:32.301Z,101027.80
2018-07-25T23:27:07.545Z,101022.50
2018-07-25T23:29:42.300Z,101020.51
2018-07-25T23:32:17.841Z,101020.72
2018-07-25T23:34:49.425Z,101015.45
2018-07-25T23:37:25.708Z,101014.94
2018-07-25T23:39:56.634Z,101013.18
2018-07-25T23:42:28.898Z,101019.67
2018-07-25T23:45:04.006Z,101019.28
2018-07-25T23:47:37.246Z,101012.41
2018-07-25T23:50:08.466Z,101027.95
2018-07-25T23:52:39.660Z,101015.80
2018-07-25T23:55:11.793Z,101011.59
2018-07-25T23:57:46.430Z,101021.55
